Terminal Aerodrome Forecast
Issued by NWS Albany, NY

Home | Current Version | Previous Version | Text Only | Print | Product List | Glossary On
Versions: 1 2 3 4 5 6 7 8 9 10 11 12 13 14 15 16
439
FTUS41 KALY 251122
TAFALB
TAF
KALB 251122Z 2512/2612 17004KT P6SM BKN150 BKN250
     FM251500 18006KT P6SM SCT070 BKN120
     FM251800 22007KT P6SM VCSH BKN070 BKN150
     FM252100 28010G16KT 4SM -TSRA BR BKN050CB
     FM260000 30006KT P6SM SCT250
     FM260400 VRB03KT 3SM BR SKC=

USA.gov is the U.S. government's official web portal to all federal, state and local government web resources and services.